Aérodrome :
LOGIN :

S'inscrire | Disclaimer

   EN    FR    IT 

 










Légende :    VFR   VFR Marginal   IFR   IFR Intensif   IFR Très Intensif
Visi : 
Plafond : 
>= 8 km
>= 3000ft
5 à 8 km
1000 à 3000 ft
1500m à 5 km
500 à 1000 ft
800 à 1500m
200 à 500 ft
< 800m
< 200 ft
Symboles :   Orages  Brouillard  Fortes neiges  Fortes précipitations  Vent > 20 kt
SIGMETs :   Divers  Orages  Givrage  Turbulence  Onde Orograph.  Cendres Volcan.







- Altitude de l'aérodrome : 194 ft


EBCV - Chièvres

DERNIER METAR :
  • 220555Z AUTO 25015G26KT 9999 OVC016/// 10/07 Q1011 WHT

METARs EXPIRÉS :
  • 220525Z AUTO 25015KT 9999 OVC017/// 10/07 Q1011 WHT
  • 220455Z AUTO 24014KT 9999 OVC016/// 10/07 Q1011 WHT
  • 220425Z AUTO 24015KT 9999 OVC012/// 10/08 Q1011 GRN
  • 220355Z AUTO 23014KT 9999 OVC011/// 09/08 Q1012 GRN
  • 220325Z AUTO 23016KT 9999 DZ OVC010/// 09/08 Q1012 GRN

TAF TAF EBCV
Valide du 21 à 19h jusqu'au 22 à 07h UTC


211541Z 2119/2207 24012G22KT 9999 OVC006
BECMG 2119/2121 24014G24KT OVC007
TEMPO 2119/2122 5000 -RA
BECMG 2202/2204 24016G30KT 9999 OVC012
TEMPO 2202/2207 24018G34KT 7000 -SHRA SCT007 OVC012 BY EBWM
Pas de NOTAMs connus pour ce terrain.
1 SIGMET publié pour la FIR Brussels (EBBU) :
 
Turbulence forte
EBBU SIGMET 01 VALID 220400/220700 EBBR
EBBU BRUSSELS FIR SEV TURB FCST W OF LINE N5115 E00400 - N5045 E00330 SFC/FL050 MOV E15KT WKN=



MET'MAP, la Météo Aéronautique d'un coup d'oeil ! - Copyright ORBIFLY Décembre 2007 - Disclaimer

ORBIFLY MET'MAP TEAM :

Programmation & Développement : Alexandra Zaïnal
Conception & Développement : Baudouin d'Aumeries
Co-Programmation & Développement : Marc-Olivier Méhu
Soutien technique & logistique : Manuel Goepfert

Contact : metmap@orbifly.com




SOURCES & CREDITS :

   NOAA